Tuesday, April 24, 2018, 4:16 AM EDT
Back to Local

KPVD, Providence Green State Airport

Location: Warwick, RI, United States Lat: 41.733
Local Time: 4:16 AM EDT ( 8:16 GMT) Lon: -71.433
Time Zone: US/Eastern Elev: 55 ft

Show me the last for .
Show Coded

Time T Td Feel RH Dir Speed Gust Alt SLP Vis Weather Sky Remarks
2018-04-24 03:51 39 36 - 88 - Calm - 30.43 30.43 10 CLR None
2018-04-24 02:51 39 36 - 88 - Calm - 30.43 30.43 10 CLR None
2018-04-24 01:51 42 37 39 82 200° 5 - 30.44 30.44 10 CLR 6-hr Min Temp (2am): 39.9°F
6-hr Max Temp (2am): 50.0°F
2018-04-24 00:51 42 34 - 72 - Calm - 30.45 30.45 10 CLR 24-hr Min Temp (1am): 35.1°F
24-hr Max Temp (1am): 66.0°F
2018-04-23 23:51 43 32 41 64 180° 3 - 30.46 30.46 10 FEW010 None
2018-04-23 22:51 45 29 44 53 190° 3 - 30.46 30.46 10 CLR None
2018-04-23 21:51 45 29 42 53 210° 6 - 30.48 30.48 10 CLR None
2018-04-23 20:51 47 29 44 49 200° 7 - 30.47 30.47 10 CLR None
2018-04-23 19:51 49 31 45 49 180° 8 - 30.46 30.46 10 FEW250 6-hr Min Temp (8pm): 48.9°F
6-hr Max Temp (8pm): 66.0°F
2018-04-23 18:51 52 31 - 44 150° 13 - 30.45 30.45 10 FEW250 None
2018-04-23 17:51 54 31 - 41 160° 14 - 30.45 30.45 10 FEW250 None
2018-04-23 16:51 57 30 - 35 160° 16 - 30.45 30.45 10 FEW250 None
2018-04-23 15:51 60 25 - 25 180° 20 - 30.44 30.44 10 FEW300 None
2018-04-23 14:51 65 21 - 18 180° 9 - 30.44 30.44 10 FEW300 None
2018-04-23 13:51 66 20 - 16 110° 9 - 30.45 30.45 10 FEW300 6-hr Min Temp (2pm): 50.0°F
6-hr Max Temp (2pm): 66.0°F
2018-04-23 12:51 62 18 - 17 200° 5 - 30.46 30.46 10 FEW300 None
2018-04-23 11:51 61 20 - 20 350° 6 - 30.49 30.49 10 FEW300 None
2018-04-23 10:51 59 20 - 21 Variable 3 - 30.50 30.50 10 CLR None
2018-04-23 09:51 57 21 - 24 Variable 6 - 30.51 30.50 10 CLR None
2018-04-23 08:51 54 22 - 28 40° 7 - 30.50 30.50 10 CLR None
2018-04-23 07:51 50 26 48 39 360° 5 - 30.50 30.50 10 CLR 6-hr Min Temp (8am): 35.1°F
6-hr Max Temp (8am): 50.0°F
2018-04-23 06:51 41 29 - 61 - Calm - 30.48 30.48 10 CLR None
2018-04-23 05:51 38 26 36 61 280° 3 - 30.46 30.46 10 CLR None
2018-04-23 04:51 38 27 - 64 - Calm - 30.44 30.44 10 CLR None

Support USWX by starting your Amazon purchase here.